createdAt,value
2022-10-05T00:00:24.352Z,34.62
2022-10-05T00:00:54.400Z,34.61
2022-10-05T00:01:24.547Z,34.58
2022-10-05T00:01:54.597Z,34.62
2022-10-05T00:02:24.520Z,34.63
2022-10-05T00:02:54.553Z,34.58
2022-10-05T00:03:24.581Z,34.60
2022-10-05T00:03:54.661Z,34.62
2022-10-05T00:04:24.700Z,34.61
2022-10-05T00:04:54.810Z,34.59
2022-10-05T00:05:24.748Z,34.62
2022-10-05T00:05:54.766Z,34.59
2022-10-05T00:06:24.794Z,34.62
2022-10-05T00:06:54.830Z,34.58
2022-10-05T00:07:24.856Z,34.60
2022-10-05T00:07:54.894Z,34.59
2022-10-05T00:08:24.915Z,34.62
2022-10-05T00:08:54.953Z,34.56
2022-10-05T00:09:24.995Z,34.58
2022-10-05T00:09:55.025Z,34.63
2022-10-05T00:10:25.050Z,34.65
2022-10-05T00:10:55.097Z,34.59
2022-10-05T00:11:25.140Z,34.66
2022-10-05T00:11:55.168Z,34.59
2022-10-05T00:12:25.284Z,34.64
2022-10-05T00:12:55.403Z,34.62
2022-10-05T00:13:25.393Z,34.65
2022-10-05T00:13:55.515Z,34.63
2022-10-05T00:14:25.510Z,34.62
2022-10-05T00:14:55.628Z,34.63
2022-10-05T00:15:25.743Z,34.60
2022-10-05T00:15:55.904Z,34.63
2022-10-05T00:16:25.969Z,34.64
2022-10-05T00:16:55.986Z,34.62
2022-10-05T00:17:25.984Z,34.64
2022-10-05T00:17:56.098Z,34.65
2022-10-05T00:18:26.210Z,34.64
2022-10-05T00:18:56.335Z,34.63
2022-10-05T00:19:26.327Z,34.60
2022-10-05T00:19:56.463Z,34.56
2022-10-05T00:20:26.562Z,34.64
2022-10-05T00:20:56.572Z,34.63
2022-10-05T00:21:26.563Z,34.62
2022-10-05T00:21:56.686Z,34.68
2022-10-05T00:22:26.715Z,34.62
2022-10-05T00:22:56.746Z,34.60
2022-10-05T00:23:26.773Z,34.62
2022-10-05T00:23:56.826Z,34.64
2022-10-05T00:24:26.833Z,34.62
2022-10-05T00:24:56.859Z,34.64
2022-10-05T00:25:26.895Z,34.60
2022-10-05T00:25:56.935Z,34.62
2022-10-05T00:26:26.966Z,34.63
2022-10-05T00:26:58.343Z,34.65
2022-10-05T00:27:27.052Z,34.64
2022-10-05T00:27:57.154Z,34.62
2022-10-05T00:28:27.249Z,34.62
2022-10-05T00:28:57.260Z,34.60
2022-10-05T00:29:27.293Z,34.64
2022-10-05T00:29:57.331Z,34.63
2022-10-05T00:30:27.364Z,34.62
2022-10-05T00:30:57.399Z,34.61
2022-10-05T00:31:27.493Z,34.64
2022-10-05T00:31:57.561Z,34.67
2022-10-05T00:32:27.569Z,34.61
2022-10-05T00:32:59.801Z,34.60
2022-10-05T00:33:27.652Z,34.63
2022-10-05T00:33:57.681Z,34.64
2022-10-05T00:34:27.717Z,34.60
2022-10-05T00:34:57.753Z,34.63
2022-10-05T00:35:27.804Z,34.61
2022-10-05T00:35:57.821Z,34.65
2022-10-05T00:36:27.848Z,34.62
2022-10-05T00:36:57.874Z,34.63
2022-10-05T00:37:27.910Z,34.62
2022-10-05T00:37:57.934Z,34.63
2022-10-05T00:38:27.958Z,34.63
2022-10-05T00:38:57.994Z,34.57
2022-10-05T00:39:28.018Z,34.62
2022-10-05T00:39:58.047Z,34.63
2022-10-05T00:40:28.074Z,34.63
2022-10-05T00:40:58.136Z,34.60
2022-10-05T00:41:28.199Z,34.57
2022-10-05T00:41:58.233Z,34.64
2022-10-05T00:42:28.269Z,34.64
2022-10-05T00:42:58.304Z,34.62
2022-10-05T00:43:28.339Z,34.56
2022-10-05T00:43:58.362Z,34.54
2022-10-05T00:44:28.388Z,34.59
2022-10-05T00:44:58.419Z,34.63
2022-10-05T00:45:28.477Z,34.59
2022-10-05T00:45:58.618Z,34.61
2022-10-05T00:46:28.518Z,34.59
2022-10-05T00:46:58.536Z,34.57
2022-10-05T00:47:28.578Z,34.58
2022-10-05T00:47:58.604Z,34.60
2022-10-05T00:48:28.629Z,34.61
2022-10-05T00:48:58.667Z,34.57
2022-10-05T00:49:28.698Z,34.59
2022-10-05T00:49:58.727Z,34.60
2022-10-05T00:50:28.754Z,34.61
2022-10-05T00:50:58.818Z,34.62
2022-10-05T00:51:28.830Z,34.58
2022-10-05T00:51:58.866Z,34.65
2022-10-05T00:52:28.890Z,34.60
2022-10-05T00:52:58.928Z,34.58
2022-10-05T00:53:28.958Z,34.58
2022-10-05T00:53:58.991Z,34.61
2022-10-05T00:54:29.019Z,34.57
2022-10-05T00:54:59.051Z,34.62
2022-10-05T00:55:29.084Z,34.58
2022-10-05T00:55:59.139Z,34.65
2022-10-05T00:56:29.177Z,34.58
2022-10-05T00:56:59.207Z,34.65
2022-10-05T00:57:29.238Z,34.60
2022-10-05T00:57:59.266Z,34.59
2022-10-05T00:58:29.298Z,34.54
2022-10-05T00:58:59.334Z,34.58
2022-10-05T00:59:29.363Z,34.58
2022-10-05T00:59:59.395Z,34.58
2022-10-05T01:00:29.425Z,34.65
2022-10-05T01:00:59.512Z,34.58
2022-10-05T01:01:29.610Z,34.56
2022-10-05T01:01:59.650Z,34.61
2022-10-05T01:02:34.360Z,34.62
2022-10-05T01:02:59.702Z,34.58
2022-10-05T01:03:29.737Z,34.57
2022-10-05T01:03:59.761Z,34.60
2022-10-05T01:04:29.793Z,34.58
2022-10-05T01:04:59.825Z,34.58
2022-10-05T01:05:29.851Z,34.58
2022-10-05T01:05:59.894Z,34.61
2022-10-05T01:06:29.996Z,34.61
2022-10-05T01:06:59.986Z,34.57
2022-10-05T01:07:30.024Z,34.57
2022-10-05T01:08:00.050Z,34.62
2022-10-05T01:08:30.086Z,34.57
2022-10-05T01:09:00.111Z,34.61
2022-10-05T01:09:30.138Z,34.58
2022-10-05T01:10:00.169Z,34.55
2022-10-05T01:10:30.204Z,34.64
2022-10-05T01:11:00.242Z,34.62
2022-10-05T01:11:30.275Z,34.58
2022-10-05T01:12:00.296Z,34.61
2022-10-05T01:12:30.412Z,34.59
2022-10-05T01:13:00.526Z,34.59
2022-10-05T01:13:30.647Z,34.62
2022-10-05T01:14:00.762Z,34.61
2022-10-05T01:14:30.881Z,34.63
2022-10-05T01:15:00.876Z,34.61
2022-10-05T01:15:30.873Z,34.57
2022-10-05T01:16:01.055Z,34.55
2022-10-05T01:16:31.258Z,34.61
2022-10-05T01:17:01.246Z,34.61
2022-10-05T01:17:31.154Z,34.57
2022-10-05T01:18:01.153Z,34.61
2022-10-05T01:18:31.278Z,34.57
2022-10-05T01:19:01.388Z,34.58
2022-10-05T01:19:31.384Z,34.63
2022-10-05T01:20:01.379Z,34.61
2022-10-05T01:20:31.490Z,34.62
2022-10-05T01:21:01.642Z,34.62
2022-10-05T01:21:31.657Z,34.64
2022-10-05T01:22:01.631Z,34.59
2022-10-05T01:22:31.659Z,34.61
2022-10-05T01:23:01.696Z,34.65
2022-10-05T01:23:31.715Z,34.58
2022-10-05T01:24:01.747Z,34.62
2022-10-05T01:24:31.777Z,34.66
2022-10-05T01:25:01.801Z,34.62
2022-10-05T01:25:31.835Z,34.59
2022-10-05T01:26:01.883Z,34.61
2022-10-05T01:26:31.921Z,34.52
2022-10-05T01:27:01.950Z,34.63
2022-10-05T01:27:31.981Z,34.62
2022-10-05T01:28:02.043Z,34.59
2022-10-05T01:28:32.156Z,34.65
2022-10-05T01:29:02.186Z,34.63
2022-10-05T01:29:32.214Z,34.59
2022-10-05T01:30:02.250Z,34.62
2022-10-05T01:30:32.278Z,34.65
2022-10-05T01:31:02.323Z,34.63
2022-10-05T01:31:32.391Z,34.59
2022-10-05T01:32:02.420Z,34.62
2022-10-05T01:32:32.448Z,34.60
2022-10-05T01:33:02.486Z,34.59
2022-10-05T01:33:32.519Z,34.62
2022-10-05T01:34:02.544Z,34.59
2022-10-05T01:34:32.578Z,34.57
2022-10-05T01:35:02.613Z,34.61
2022-10-05T01:35:32.638Z,34.60
2022-10-05T01:36:02.675Z,34.58
2022-10-05T01:36:32.703Z,34.55
2022-10-05T01:37:02.755Z,34.60
2022-10-05T01:37:32.770Z,34.59
2022-10-05T01:38:02.795Z,34.58
2022-10-05T01:38:32.824Z,34.60
2022-10-05T01:39:02.868Z,34.59
2022-10-05T01:39:32.901Z,34.61
2022-10-05T01:40:02.929Z,34.63
2022-10-05T01:40:32.967Z,34.56
2022-10-05T01:41:03.002Z,34.63
2022-10-05T01:41:33.024Z,34.59
2022-10-05T01:42:03.061Z,34.61
2022-10-05T01:42:33.090Z,34.57
2022-10-05T01:43:03.120Z,34.55
2022-10-05T01:43:33.151Z,34.55
2022-10-05T01:44:03.188Z,34.65
2022-10-05T01:44:33.210Z,34.59
2022-10-05T01:45:03.242Z,34.55
2022-10-05T01:45:33.330Z,34.58
2022-10-05T01:46:03.418Z,34.60
2022-10-05T01:46:33.448Z,34.59
2022-10-05T01:47:03.478Z,34.54
2022-10-05T01:47:33.506Z,34.63
2022-10-05T01:48:03.535Z,34.54
2022-10-05T01:48:33.573Z,34.59
2022-10-05T01:49:03.602Z,34.55
2022-10-05T01:49:33.634Z,34.55
2022-10-05T01:50:03.665Z,34.61
2022-10-05T01:50:33.702Z,34.55
2022-10-05T01:51:03.728Z,34.58
2022-10-05T01:51:33.890Z,34.59
2022-10-05T01:52:03.799Z,34.58
2022-10-05T01:52:33.854Z,34.55
2022-10-05T01:53:03.864Z,34.53
2022-10-05T01:53:33.891Z,34.58
2022-10-05T01:54:03.923Z,34.59
2022-10-05T01:54:33.963Z,34.57
2022-10-05T01:55:03.997Z,34.59
2022-10-05T01:55:34.026Z,34.56
2022-10-05T01:56:04.058Z,34.59
2022-10-05T01:56:34.128Z,34.57
2022-10-05T01:57:04.154Z,34.59
2022-10-05T01:57:34.184Z,34.56
2022-10-05T01:58:04.217Z,34.63
2022-10-05T01:58:34.251Z,34.57
2022-10-05T01:59:04.275Z,34.57
2022-10-05T01:59:34.306Z,34.56
2022-10-05T02:00:04.341Z,34.61
2022-10-05T02:00:34.366Z,34.59
2022-10-05T02:01:04.483Z,34.56
2022-10-05T02:01:34.569Z,34.57
2022-10-05T02:02:04.616Z,34.55
2022-10-05T02:02:34.689Z,34.60
2022-10-05T02:03:04.733Z,34.56
2022-10-05T02:03:34.770Z,34.53
2022-10-05T02:04:04.812Z,34.59
2022-10-05T02:05:00.991Z,34.55
2022-10-05T02:05:04.877Z,34.55
2022-10-05T02:05:34.907Z,34.54
2022-10-05T02:06:04.933Z,34.56
2022-10-05T02:06:34.966Z,34.59
2022-10-05T02:07:05.000Z,34.50
2022-10-05T02:07:35.028Z,34.57
2022-10-05T02:08:05.080Z,34.59
2022-10-05T02:08:35.089Z,34.55
2022-10-05T02:09:05.111Z,34.53
2022-10-05T02:09:35.146Z,34.53
2022-10-05T02:10:05.177Z,34.53
2022-10-05T02:10:35.220Z,34.53
2022-10-05T02:11:05.245Z,34.53
2022-10-05T02:11:35.286Z,34.52
2022-10-05T02:12:05.291Z,34.53
2022-10-05T02:12:35.409Z,34.56
2022-10-05T02:13:05.527Z,34.57
2022-10-05T02:13:35.645Z,34.54
2022-10-05T02:14:05.761Z,34.59
2022-10-05T02:14:35.756Z,34.57
2022-10-05T02:15:05.750Z,34.59
2022-10-05T02:15:35.813Z,34.56
2022-10-05T02:16:05.885Z,34.55
2022-10-05T02:16:35.874Z,34.56
2022-10-05T02:17:05.864Z,34.52
2022-10-05T02:17:35.982Z,34.52
2022-10-05T02:18:06.076Z,34.52
2022-10-05T02:18:36.049Z,34.55
2022-10-05T02:19:06.171Z,34.53
2022-10-05T02:19:36.284Z,34.49
2022-10-05T02:20:06.399Z,34.56
2022-10-05T02:20:36.518Z,34.54
2022-10-05T02:21:06.515Z,34.56
2022-10-05T02:21:36.639Z,34.57
2022-10-05T02:22:06.657Z,34.59
2022-10-05T02:22:36.686Z,34.56
2022-10-05T02:23:06.723Z,34.59
2022-10-05T02:23:36.779Z,34.57
2022-10-05T02:24:06.784Z,34.54
2022-10-05T02:24:36.815Z,34.59
2022-10-05T02:25:06.851Z,34.59
2022-10-05T02:25:36.876Z,34.54
2022-10-05T02:26:06.908Z,34.57
2022-10-05T02:26:36.944Z,34.58
2022-10-05T02:27:06.975Z,34.53
2022-10-05T02:27:37.008Z,34.60
2022-10-05T02:28:07.083Z,34.56
2022-10-05T02:28:37.175Z,34.58
2022-10-05T02:29:07.201Z,34.61
2022-10-05T02:29:37.233Z,34.53
2022-10-05T02:30:07.268Z,34.59
2022-10-05T02:30:37.292Z,34.60
2022-10-05T02:31:07.377Z,34.61
2022-10-05T02:31:37.448Z,34.63
2022-10-05T02:32:07.470Z,34.60
2022-10-05T02:32:37.500Z,34.57
2022-10-05T02:33:07.526Z,34.59
2022-10-05T02:33:37.561Z,34.61
2022-10-05T02:34:07.591Z,34.59
2022-10-05T02:34:37.618Z,34.56
2022-10-05T02:35:07.653Z,34.54
2022-10-05T02:35:37.683Z,34.58
2022-10-05T02:36:07.711Z,34.57
2022-10-05T02:36:37.757Z,34.57
2022-10-05T02:37:07.788Z,34.54
2022-10-05T02:37:37.826Z,34.57
2022-10-05T02:38:07.857Z,34.60
2022-10-05T02:38:37.885Z,34.59
2022-10-05T02:39:07.985Z,34.64
2022-10-05T02:39:37.978Z,34.57
2022-10-05T02:40:08.009Z,34.60
2022-10-05T02:40:38.055Z,34.58
2022-10-05T02:41:08.088Z,34.62
2022-10-05T02:41:38.125Z,34.63
2022-10-05T02:42:08.155Z,34.59
2022-10-05T02:42:38.187Z,34.60
2022-10-05T02:43:08.216Z,34.59
2022-10-05T02:43:38.247Z,34.58
2022-10-05T02:44:08.279Z,34.57
2022-10-05T02:44:38.308Z,34.58
2022-10-05T02:45:08.342Z,34.58
2022-10-05T02:45:38.437Z,34.58
2022-10-05T02:46:08.485Z,34.58
2022-10-05T02:46:38.540Z,34.58
2022-10-05T02:47:08.572Z,34.60
2022-10-05T02:47:38.600Z,34.62
2022-10-05T02:48:08.634Z,34.60
2022-10-05T02:48:38.663Z,34.57
2022-10-05T02:49:08.690Z,34.58
2022-10-05T02:49:38.721Z,34.58
2022-10-05T02:50:08.752Z,34.59
2022-10-05T02:50:38.776Z,34.57
2022-10-05T02:51:08.808Z,34.55
2022-10-05T02:51:38.850Z,34.54
2022-10-05T02:52:08.874Z,34.57
2022-10-05T02:52:38.906Z,34.57
2022-10-05T02:53:08.941Z,34.54
2022-10-05T02:53:38.967Z,34.48
2022-10-05T02:54:09.009Z,34.54
2022-10-05T02:54:39.111Z,34.53
2022-10-05T02:55:09.107Z,34.49
2022-10-05T02:55:39.138Z,34.50
2022-10-05T02:56:09.171Z,34.53
2022-10-05T02:56:39.209Z,34.52
2022-10-05T02:57:09.240Z,34.48
2022-10-05T02:57:39.271Z,34.46
2022-10-05T02:58:09.297Z,34.46
2022-10-05T02:58:39.328Z,34.46
2022-10-05T02:59:09.359Z,34.45
2022-10-05T02:59:39.396Z,34.43
2022-10-05T03:00:09.428Z,34.41
2022-10-05T03:00:39.450Z,34.46
2022-10-05T03:01:09.533Z,34.45
2022-10-05T03:01:39.695Z,34.41
2022-10-05T03:02:09.712Z,34.42
2022-10-05T03:02:39.728Z,34.43
2022-10-05T03:03:09.761Z,34.40
2022-10-05T03:03:39.788Z,34.45
2022-10-05T03:04:09.818Z,34.42
2022-10-05T03:04:39.850Z,34.44
2022-10-05T03:05:09.879Z,34.37
2022-10-05T03:05:39.908Z,34.37
2022-10-05T03:06:09.936Z,34.38
2022-10-05T03:06:39.965Z,34.40
2022-10-05T03:07:09.999Z,34.37
2022-10-05T03:07:40.030Z,34.40
2022-10-05T03:08:10.064Z,34.35
2022-10-05T03:08:40.085Z,34.38
2022-10-05T03:09:10.112Z,34.37
2022-10-05T03:09:40.140Z,34.30
2022-10-05T03:10:10.199Z,34.36
2022-10-05T03:10:40.209Z,34.40
2022-10-05T03:11:10.244Z,34.36
2022-10-05T03:11:40.274Z,34.36
2022-10-05T03:12:10.283Z,34.33
2022-10-05T03:12:40.397Z,34.34
2022-10-05T03:13:10.394Z,34.36
2022-10-05T03:13:40.510Z,34.38
2022-10-05T03:14:10.623Z,34.38
2022-10-05T03:14:40.619Z,34.34
2022-10-05T03:15:10.739Z,34.36
2022-10-05T03:15:40.940Z,34.38
2022-10-05T03:16:10.967Z,34.36
2022-10-05T03:16:40.937Z,34.40
2022-10-05T03:17:10.922Z,34.33
2022-10-05T03:17:41.036Z,34.30
2022-10-05T03:18:11.158Z,34.36
2022-10-05T03:18:41.152Z,34.38
2022-10-05T03:19:11.154Z,34.32
2022-10-05T03:19:41.269Z,34.33
2022-10-05T03:20:11.266Z,34.36
2022-10-05T03:20:41.381Z,34.34
2022-10-05T03:21:11.534Z,34.33
2022-10-05T03:21:41.531Z,34.36
2022-10-05T03:22:11.550Z,34.40
2022-10-05T03:22:41.579Z,34.34
2022-10-05T03:23:11.606Z,34.32
2022-10-05T03:23:41.634Z,34.38
2022-10-05T03:24:11.663Z,34.34
2022-10-05T03:24:41.692Z,34.33
2022-10-05T03:25:11.722Z,34.37
2022-10-05T03:25:41.800Z,34.34
2022-10-05T03:26:11.804Z,34.33
2022-10-05T03:26:41.835Z,34.33
2022-10-05T03:27:11.861Z,34.38
2022-10-05T03:27:41.889Z,34.36
2022-10-05T03:28:11.956Z,34.36
2022-10-05T03:28:41.969Z,34.37
2022-10-05T03:29:12.003Z,34.34
2022-10-05T03:29:42.035Z,34.32
2022-10-05T03:30:12.067Z,34.32
2022-10-05T03:30:42.096Z,34.36
2022-10-05T03:31:12.222Z,34.37
2022-10-05T03:31:42.133Z,34.32
2022-10-05T03:32:12.160Z,34.30
2022-10-05T03:32:42.215Z,34.37
2022-10-05T03:33:12.214Z,34.33
2022-10-05T03:33:42.274Z,34.36
2022-10-05T03:34:12.292Z,34.34
2022-10-05T03:34:42.323Z,34.31
2022-10-05T03:35:12.357Z,34.34
2022-10-05T03:35:42.397Z,34.33
2022-10-05T03:36:12.428Z,34.34
2022-10-05T03:36:42.516Z,34.30
2022-10-05T03:37:12.571Z,34.30
2022-10-05T03:37:42.621Z,34.33
2022-10-05T03:38:12.640Z,34.32
2022-10-05T03:38:42.666Z,34.32
2022-10-05T03:39:12.695Z,34.32
2022-10-05T03:39:42.720Z,34.37
2022-10-05T03:40:12.755Z,34.30
2022-10-05T03:40:42.781Z,34.32
2022-10-05T03:41:12.869Z,34.34
2022-10-05T03:41:42.874Z,34.33
2022-10-05T03:42:12.904Z,34.34
2022-10-05T03:42:42.934Z,34.36
2022-10-05T03:43:12.962Z,34.29
2022-10-05T03:43:42.990Z,34.29
2022-10-05T03:44:13.017Z,34.29
2022-10-05T03:44:43.045Z,34.32
2022-10-05T03:45:13.091Z,34.34
2022-10-05T03:45:43.111Z,34.27
2022-10-05T03:46:13.270Z,34.25
2022-10-05T03:46:43.246Z,34.29
2022-10-05T03:47:13.192Z,34.29
2022-10-05T03:47:43.223Z,34.30
2022-10-05T03:48:13.249Z,34.27
2022-10-05T03:48:43.275Z,34.26
2022-10-05T03:49:13.311Z,34.27
2022-10-05T03:49:43.337Z,34.30
2022-10-05T03:50:13.369Z,34.30
2022-10-05T03:50:43.400Z,34.23
2022-10-05T03:51:13.442Z,34.25
2022-10-05T03:51:43.466Z,34.23
2022-10-05T03:52:13.500Z,34.26
2022-10-05T03:52:43.526Z,34.25
2022-10-05T03:53:13.553Z,34.29
2022-10-05T03:53:43.589Z,34.22
2022-10-05T03:54:13.659Z,34.20
2022-10-05T03:54:43.682Z,34.20
2022-10-05T03:55:13.719Z,34.25
2022-10-05T03:55:43.786Z,34.22
2022-10-05T03:56:13.815Z,34.23
2022-10-05T03:56:44.345Z,34.18
2022-10-05T03:57:13.917Z,34.22
2022-10-05T03:57:43.948Z,34.22
2022-10-05T03:58:13.975Z,34.22
2022-10-05T03:58:44.001Z,34.16
2022-10-05T03:59:14.029Z,34.16
2022-10-05T03:59:44.055Z,34.18
2022-10-05T04:00:14.206Z,34.18
2022-10-05T04:00:44.134Z,34.16
2022-10-05T04:01:14.214Z,34.15
2022-10-05T04:01:44.296Z,34.16
2022-10-05T04:02:14.379Z,34.15
2022-10-05T04:02:44.517Z,34.15
2022-10-05T04:03:14.445Z,34.13
2022-10-05T04:03:44.471Z,34.10
2022-10-05T04:04:14.499Z,34.12
2022-10-05T04:04:44.528Z,34.12
2022-10-05T04:05:14.557Z,34.09
2022-10-05T04:05:44.599Z,34.08
2022-10-05T04:06:14.636Z,34.07
2022-10-05T04:06:45.042Z,34.03
2022-10-05T04:07:14.686Z,34.07
2022-10-05T04:07:44.722Z,34.10
2022-10-05T04:08:14.750Z,34.04
2022-10-05T04:08:47.822Z,34.09
2022-10-05T04:09:14.862Z,34.00
2022-10-05T04:09:44.890Z,34.03
2022-10-05T04:10:14.915Z,34.08
2022-10-05T04:10:44.946Z,34.02
2022-10-05T04:11:14.979Z,33.99
2022-10-05T04:11:45.025Z,34.05
2022-10-05T04:12:15.148Z,34.00
2022-10-05T04:12:45.128Z,34.00
2022-10-05T04:13:15.167Z,34.00
2022-10-05T04:13:45.190Z,33.99
2022-10-05T04:14:15.217Z,34.00
2022-10-05T04:14:45.259Z,33.99
2022-10-05T04:15:18.839Z,33.97
2022-10-05T04:15:45.455Z,33.96
2022-10-05T04:16:15.567Z,34.02
2022-10-05T04:16:45.882Z,33.99
2022-10-05T04:17:15.607Z,33.96
2022-10-05T04:17:45.638Z,33.96
2022-10-05T04:18:15.668Z,33.96
2022-10-05T04:18:45.698Z,33.96
2022-10-05T04:19:15.724Z,33.96
2022-10-05T04:19:45.770Z,33.91
2022-10-05T04:20:15.787Z,33.91
2022-10-05T04:20:45.820Z,33.93
2022-10-05T04:21:20.070Z,33.94
2022-10-05T04:21:45.929Z,33.89
2022-10-05T04:22:15.988Z,33.91
2022-10-05T04:22:46.059Z,33.87
2022-10-05T04:23:16.136Z,33.91
2022-10-05T04:23:46.195Z,33.89
2022-10-05T04:24:16.269Z,33.94
2022-10-05T04:24:46.337Z,33.86
2022-10-05T04:25:16.409Z,33.89
2022-10-05T04:25:46.483Z,33.89
2022-10-05T04:26:16.549Z,33.92
2022-10-05T04:26:47.067Z,33.84
2022-10-05T04:27:16.703Z,33.83
2022-10-05T04:27:46.915Z,33.84
2022-10-05T04:28:16.879Z,33.81
2022-10-05T04:28:46.900Z,33.86
2022-10-05T04:29:16.814Z,33.84
2022-10-05T04:29:46.897Z,33.86
2022-10-05T04:30:16.989Z,33.83
2022-10-05T04:30:47.059Z,33.86
2022-10-05T04:31:17.205Z,33.83
2022-10-05T04:31:47.295Z,33.86
2022-10-05T04:32:17.217Z,33.78
2022-10-05T04:32:47.286Z,33.80
2022-10-05T04:33:17.360Z,33.83
2022-10-05T04:33:47.426Z,33.78
2022-10-05T04:34:17.495Z,33.80
2022-10-05T04:34:47.565Z,33.78
2022-10-05T04:35:17.634Z,33.75
2022-10-05T04:35:47.703Z,33.83
2022-10-05T04:36:17.785Z,33.81
2022-10-05T04:36:48.104Z,33.80
2022-10-05T04:37:17.859Z,33.83
2022-10-05T04:37:47.937Z,33.81
2022-10-05T04:38:18.004Z,33.84
2022-10-05T04:38:48.076Z,33.78
2022-10-05T04:39:18.145Z,33.77
2022-10-05T04:39:48.219Z,33.78
2022-10-05T04:40:18.299Z,33.80
2022-10-05T04:40:48.378Z,33.78
2022-10-05T04:41:18.454Z,33.86
2022-10-05T04:41:48.522Z,33.78
2022-10-05T04:42:18.592Z,33.78
2022-10-05T04:42:48.658Z,33.83
2022-10-05T04:43:18.802Z,33.84
2022-10-05T04:43:48.840Z,33.82
2022-10-05T04:44:18.912Z,33.78
2022-10-05T04:44:48.982Z,33.85
2022-10-05T04:45:19.069Z,33.81
2022-10-05T04:45:49.143Z,33.85
2022-10-05T04:46:19.278Z,33.80
2022-10-05T04:46:49.707Z,33.83
2022-10-05T04:47:19.259Z,33.83
2022-10-05T04:47:49.323Z,33.82
2022-10-05T04:48:19.393Z,33.83
2022-10-05T04:48:49.470Z,33.89
2022-10-05T04:49:19.538Z,33.78
2022-10-05T04:49:49.612Z,33.83
2022-10-05T04:50:19.683Z,33.83
2022-10-05T04:50:49.747Z,33.78
2022-10-05T04:51:19.821Z,33.80
2022-10-05T04:51:51.241Z,33.83
2022-10-05T04:52:19.961Z,33.86
2022-10-05T04:52:50.031Z,33.78
2022-10-05T04:53:20.103Z,33.83
2022-10-05T04:53:50.168Z,33.89
2022-10-05T04:54:20.239Z,33.86
2022-10-05T04:54:50.303Z,33.86
2022-10-05T04:55:20.379Z,33.81
2022-10-05T04:55:50.451Z,33.86
2022-10-05T04:56:20.523Z,33.92
2022-10-05T04:56:50.599Z,33.87
2022-10-05T04:57:20.666Z,33.89
2022-10-05T04:57:50.743Z,33.89
2022-10-05T04:58:20.811Z,33.86
2022-10-05T04:58:50.902Z,33.87
2022-10-05T04:59:20.955Z,33.92
2022-10-05T04:59:51.030Z,33.95
2022-10-05T05:00:21.098Z,33.93
2022-10-05T05:00:51.228Z,33.92
2022-10-05T05:01:21.281Z,33.98
2022-10-05T05:01:51.345Z,33.95
2022-10-05T05:02:21.419Z,33.92
2022-10-05T05:02:51.497Z,33.92
2022-10-05T05:03:21.624Z,33.96
2022-10-05T05:03:51.723Z,33.96
2022-10-05T05:04:21.795Z,34.00
2022-10-05T05:04:52.283Z,33.95
2022-10-05T05:05:21.972Z,33.95
2022-10-05T05:06:15.206Z,33.96
2022-10-05T05:06:22.135Z,34.00
2022-10-05T05:06:52.220Z,33.98
2022-10-05T05:07:22.291Z,34.00
2022-10-05T05:07:52.361Z,34.03
2022-10-05T05:08:22.430Z,33.99
2022-10-05T05:08:52.500Z,33.98
2022-10-05T05:09:22.571Z,34.05
2022-10-05T05:09:52.635Z,34.01
2022-10-05T05:10:22.707Z,34.03
2022-10-05T05:10:52.783Z,34.01
2022-10-05T05:11:24.690Z,34.04
2022-10-05T05:11:52.845Z,33.98
2022-10-05T05:12:22.875Z,34.10
2022-10-05T05:12:52.903Z,34.10
2022-10-05T05:13:22.942Z,34.15
2022-10-05T05:13:52.992Z,34.14
2022-10-05T05:14:22.997Z,34.11
2022-10-05T05:14:53.034Z,34.08
2022-10-05T05:15:23.070Z,34.11
2022-10-05T05:15:53.188Z,34.11
2022-10-05T05:16:23.245Z,34.14
2022-10-05T05:16:53.154Z,34.18
2022-10-05T05:17:23.182Z,34.11
2022-10-05T05:17:53.215Z,34.17
2022-10-05T05:18:23.242Z,34.13
2022-10-05T05:18:53.277Z,34.14
2022-10-05T05:19:23.307Z,34.17
2022-10-05T05:19:53.335Z,34.14
2022-10-05T05:20:23.365Z,34.16
2022-10-05T05:20:53.399Z,34.17
2022-10-05T05:21:23.430Z,34.11
2022-10-05T05:21:53.463Z,34.35
2022-10-05T05:22:23.531Z,34.30
2022-10-05T05:22:53.607Z,34.26
2022-10-05T05:23:23.678Z,34.22
2022-10-05T05:23:53.749Z,34.24
2022-10-05T05:24:23.817Z,34.14
2022-10-05T05:24:53.887Z,34.19
2022-10-05T05:25:23.966Z,34.17
2022-10-05T05:25:54.036Z,34.19
2022-10-05T05:26:24.119Z,34.16
2022-10-05T05:26:54.195Z,34.14
2022-10-05T05:27:24.264Z,34.19
2022-10-05T05:27:54.379Z,34.17
2022-10-05T05:28:24.655Z,34.17
2022-10-05T05:28:54.544Z,34.22
2022-10-05T05:29:24.588Z,34.21
2022-10-05T05:29:54.660Z,34.19
2022-10-05T05:30:24.729Z,34.26
2022-10-05T05:30:54.859Z,34.30
2022-10-05T05:31:24.874Z,34.23
2022-10-05T05:31:54.805Z,34.27
2022-10-05T05:32:24.873Z,34.21
2022-10-05T05:32:54.940Z,34.26
2022-10-05T05:33:25.014Z,34.21
2022-10-05T05:33:55.090Z,34.24
2022-10-05T05:34:25.156Z,34.27
2022-10-05T05:34:55.228Z,34.24
2022-10-05T05:35:25.298Z,34.28
2022-10-05T05:35:55.374Z,34.28
2022-10-05T05:36:25.450Z,34.29
2022-10-05T05:36:55.521Z,34.27
2022-10-05T05:37:25.591Z,34.32
2022-10-05T05:37:55.659Z,34.32
2022-10-05T05:38:25.735Z,34.36
2022-10-05T05:38:55.805Z,34.33
2022-10-05T05:39:25.875Z,34.50
2022-10-05T05:39:55.963Z,34.40
2022-10-05T05:40:26.022Z,34.40
2022-10-05T05:40:56.092Z,34.34
2022-10-05T05:41:26.164Z,34.38
2022-10-05T05:41:56.235Z,34.41
2022-10-05T05:42:26.303Z,34.38
2022-10-05T05:42:56.371Z,34.40
2022-10-05T05:43:26.451Z,34.41
2022-10-05T05:43:56.534Z,34.37
2022-10-05T05:44:26.590Z,34.37
2022-10-05T05:44:56.661Z,34.38
2022-10-05T05:45:26.731Z,34.42
2022-10-05T05:45:56.807Z,34.37
2022-10-05T05:46:44.680Z,34.41
2022-10-05T05:47:04.057Z,34.38
2022-10-05T05:47:27.128Z,34.44
2022-10-05T05:47:57.046Z,34.42
2022-10-05T05:48:27.114Z,34.47
2022-10-05T05:48:57.194Z,34.38
2022-10-05T05:49:27.253Z,34.49
2022-10-05T05:49:57.322Z,34.41
2022-10-05T05:50:27.394Z,34.44
2022-10-05T05:50:57.472Z,34.49
2022-10-05T05:51:27.539Z,34.41
2022-10-05T05:51:57.609Z,34.49
2022-10-05T05:52:27.671Z,34.45
2022-10-05T05:52:57.740Z,34.48
2022-10-05T05:53:27.809Z,34.47
2022-10-05T05:53:57.874Z,34.45
2022-10-05T05:54:27.949Z,34.51
2022-10-05T05:54:58.023Z,34.44
2022-10-05T05:55:30.437Z,34.43
2022-10-05T05:55:58.171Z,34.44
2022-10-05T05:56:28.243Z,34.38
2022-10-05T05:56:58.312Z,34.37
2022-10-05T05:57:28.386Z,34.40
2022-10-05T05:57:58.455Z,34.43
2022-10-05T05:58:28.537Z,34.47
2022-10-05T05:58:58.703Z,34.48
2022-10-05T05:59:28.604Z,34.44
2022-10-05T05:59:58.677Z,34.42
2022-10-05T06:00:28.834Z,34.45
2022-10-05T06:00:58.816Z,34.48
2022-10-05T06:01:33.680Z,34.48
2022-10-05T06:01:59.105Z,34.45
2022-10-05T06:02:29.219Z,34.45
2022-10-05T06:02:59.166Z,34.52
2022-10-05T06:03:29.214Z,34.45
2022-10-05T06:03:59.122Z,34.53
2022-10-05T06:04:29.193Z,34.53
2022-10-05T06:04:59.263Z,34.57
2022-10-05T06:05:29.342Z,34.53
2022-10-05T06:05:59.431Z,34.54
2022-10-05T06:06:29.504Z,34.56
2022-10-05T06:06:59.581Z,34.56
2022-10-05T06:07:30.870Z,34.56
2022-10-05T06:07:59.718Z,34.59
2022-10-05T06:08:29.791Z,34.59
2022-10-05T06:08:59.862Z,34.60
2022-10-05T06:09:29.945Z,34.56
2022-10-05T06:10:00.009Z,34.61
2022-10-05T06:10:30.083Z,34.60
2022-10-05T06:11:00.167Z,34.60
2022-10-05T06:11:30.235Z,34.61
2022-10-05T06:12:00.299Z,34.62
2022-10-05T06:12:30.331Z,34.64
2022-10-05T06:13:01.851Z,34.64
2022-10-05T06:13:30.473Z,34.62
2022-10-05T06:14:00.507Z,34.65
2022-10-05T06:14:30.558Z,34.65
2022-10-05T06:15:00.572Z,34.71
2022-10-05T06:15:30.600Z,34.59
2022-10-05T06:16:00.716Z,34.61
2022-10-05T06:16:30.789Z,34.64
2022-10-05T06:17:00.818Z,34.67
2022-10-05T06:17:30.850Z,34.68
2022-10-05T06:18:00.881Z,34.67
2022-10-05T06:18:30.910Z,34.68
2022-10-05T06:19:00.944Z,34.68
2022-10-05T06:19:30.973Z,34.68
2022-10-05T06:20:04.987Z,34.75
2022-10-05T06:20:31.007Z,34.75
2022-10-05T06:21:01.044Z,34.74
2022-10-05T06:21:31.085Z,34.71
2022-10-05T06:22:01.125Z,34.68
2022-10-05T06:22:31.193Z,34.71
2022-10-05T06:23:01.277Z,34.75
2022-10-05T06:23:31.339Z,34.67
2022-10-05T06:24:01.410Z,34.71
2022-10-05T06:24:31.493Z,34.67
2022-10-05T06:25:01.563Z,34.68
2022-10-05T06:25:31.632Z,34.71
2022-10-05T06:26:01.702Z,34.74
2022-10-05T06:26:31.780Z,34.75
2022-10-05T06:27:01.861Z,34.71